createdAt,value
2019-03-23T00:00:40.494Z,10.60
2019-03-23T00:01:47.943Z,10.60
2019-03-23T00:02:51.257Z,10.60
2019-03-23T00:03:54.524Z,10.60
2019-03-23T00:04:57.719Z,10.70
2019-03-23T00:06:00.966Z,10.70
2019-03-23T00:07:04.265Z,10.70
2019-03-23T00:08:07.707Z,10.70
2019-03-23T00:09:11.081Z,10.70
2019-03-23T00:10:14.570Z,10.60
2019-03-23T00:11:18.192Z,10.60
2019-03-23T00:12:21.416Z,10.60
2019-03-23T00:13:24.776Z,10.60
2019-03-23T00:14:28.111Z,10.60
2019-03-23T00:15:31.376Z,10.50
2019-03-23T00:16:34.573Z,10.50
2019-03-23T00:17:37.961Z,10.60
2019-03-23T00:18:41.314Z,10.50
2019-03-23T00:19:44.620Z,10.50
2019-03-23T00:20:47.862Z,10.50
2019-03-23T00:21:51.319Z,10.50
2019-03-23T00:22:54.666Z,10.40
2019-03-23T00:23:57.884Z,10.40
2019-03-23T00:25:01.415Z,10.40
2019-03-23T00:26:04.743Z,10.40
2019-03-23T00:27:08.351Z,10.40
2019-03-23T00:28:11.620Z,10.40
2019-03-23T00:29:15.015Z,10.30
2019-03-23T00:30:18.465Z,10.40
2019-03-23T00:31:21.641Z,10.30
2019-03-23T00:32:25.105Z,10.30
2019-03-23T00:33:28.700Z,10.30
2019-03-23T00:34:32.074Z,10.30
2019-03-23T00:35:35.431Z,10.30
2019-03-23T00:36:41.681Z,10.30
2019-03-23T00:37:44.017Z,10.30
2019-03-23T00:38:47.330Z,10.30
2019-03-23T00:39:50.459Z,10.30
2019-03-23T00:40:53.622Z,10.30
2019-03-23T00:41:57.054Z,10.30
2019-03-23T00:43:00.310Z,10.20
2019-03-23T00:44:03.494Z,10.30
2019-03-23T00:45:07.261Z,10.30
2019-03-23T00:46:12.310Z,10.30
2019-03-23T00:47:15.600Z,10.20
2019-03-23T00:48:19.098Z,10.20
2019-03-23T00:49:22.564Z,10.20
2019-03-23T00:50:25.832Z,10.20
2019-03-23T00:51:29.185Z,10.20
2019-03-23T00:52:32.460Z,10.20
2019-03-23T00:53:35.691Z,10.20
2019-03-23T00:54:39.046Z,10.20
2019-03-23T00:55:42.308Z,10.20
2019-03-23T00:56:45.805Z,10.20
2019-03-23T00:57:49.318Z,10.20
2019-03-23T00:58:52.771Z,10.20
2019-03-23T00:59:56.112Z,10.10
2019-03-23T01:00:59.448Z,10.10
2019-03-23T01:02:02.865Z,10.10
2019-03-23T01:03:06.321Z,10.00
2019-03-23T01:04:09.583Z,10.00
2019-03-23T01:05:13.395Z,10.00
2019-03-23T01:06:16.926Z,10.00
2019-03-23T01:07:20.660Z,10.00
2019-03-23T01:08:25.037Z,10.00
2019-03-23T01:09:29.419Z,10.00
2019-03-23T01:10:32.895Z,10.00
2019-03-23T01:11:37.860Z,10.00
2019-03-23T01:12:42.163Z,10.00
2019-03-23T01:13:46.157Z,10.00
2019-03-23T01:14:50.196Z,10.00
2019-03-23T01:15:53.751Z,9.90
2019-03-23T01:16:58.010Z,9.90
2019-03-23T01:18:01.368Z,9.90
2019-03-23T01:19:05.232Z,9.90
2019-03-23T01:20:09.514Z,9.90
2019-03-23T01:21:13.159Z,9.90
2019-03-23T01:22:17.291Z,9.90
2019-03-23T01:23:21.201Z,9.90
2019-03-23T01:24:24.754Z,9.90
2019-03-23T01:25:28.463Z,9.90
2019-03-23T01:26:31.782Z,9.90
2019-03-23T01:27:35.417Z,9.90
2019-03-23T01:28:39.807Z,9.90
2019-03-23T01:29:43.968Z,9.90
2019-03-23T01:30:47.923Z,9.90
2019-03-23T01:31:52.755Z,9.90
2019-03-23T01:32:57.197Z,9.90
2019-03-23T01:34:00.746Z,9.90
2019-03-23T01:35:05.285Z,9.80
2019-03-23T01:36:08.621Z,9.80
2019-03-23T01:37:11.855Z,9.80
2019-03-23T01:38:15.105Z,9.80
2019-03-23T01:39:18.475Z,9.70
2019-03-23T01:40:21.690Z,9.70
2019-03-23T01:41:27.627Z,9.70
2019-03-23T01:42:31.225Z,9.70
2019-03-23T01:43:34.561Z,9.60
2019-03-23T01:44:37.732Z,9.60
2019-03-23T01:45:41.000Z,9.60
2019-03-23T01:46:44.414Z,9.60
2019-03-23T01:47:47.784Z,9.60
2019-03-23T01:48:51.031Z,9.60
2019-03-23T01:49:54.422Z,9.50
2019-03-23T01:50:57.850Z,9.60
2019-03-23T01:52:01.074Z,9.60
2019-03-23T01:53:04.441Z,9.60
2019-03-23T01:54:07.592Z,9.60
2019-03-23T01:55:11.133Z,9.60
2019-03-23T01:56:14.417Z,9.60
2019-03-23T01:57:17.778Z,9.50
2019-03-23T01:58:21.019Z,9.60
2019-03-23T01:59:24.232Z,9.60
2019-03-23T02:00:28.377Z,9.60
2019-03-23T02:01:31.904Z,9.60
2019-03-23T02:02:35.321Z,9.60
2019-03-23T02:03:38.716Z,9.60
2019-03-23T02:04:42.518Z,9.60
2019-03-23T02:05:45.849Z,9.60
2019-03-23T02:06:49.050Z,9.60
2019-03-23T02:07:52.242Z,9.60
2019-03-23T02:08:55.477Z,9.60
2019-03-23T02:09:58.930Z,9.60
2019-03-23T02:11:02.331Z,9.60
2019-03-23T02:12:05.473Z,9.60
2019-03-23T02:13:09.185Z,9.50
2019-03-23T02:14:12.891Z,9.50
2019-03-23T02:15:16.183Z,9.50
2019-03-23T02:16:19.721Z,9.50
2019-03-23T02:17:23.192Z,9.50
2019-03-23T02:18:26.632Z,9.40
2019-03-23T02:19:30.013Z,9.40
2019-03-23T02:20:33.271Z,9.40
2019-03-23T02:21:37.918Z,9.30
2019-03-23T02:22:41.662Z,9.30
2019-03-23T02:23:45.030Z,9.30
2019-03-23T02:24:48.454Z,9.30
2019-03-23T02:25:51.713Z,9.30
2019-03-23T02:26:55.222Z,9.40
2019-03-23T02:27:58.505Z,9.40
2019-03-23T02:29:01.804Z,9.40
2019-03-23T02:30:05.591Z,9.40
2019-03-23T02:31:08.744Z,9.40
2019-03-23T02:32:11.891Z,9.40
2019-03-23T02:33:15.276Z,9.40
2019-03-23T02:34:18.577Z,9.40
2019-03-23T02:35:22.107Z,9.40
2019-03-23T02:36:26.640Z,9.40
2019-03-23T02:37:29.891Z,9.40
2019-03-23T02:38:33.393Z,9.40
2019-03-23T02:39:36.863Z,9.40
2019-03-23T02:40:40.322Z,9.40
2019-03-23T02:41:43.794Z,9.40
2019-03-23T02:42:47.195Z,9.40
2019-03-23T02:43:51.301Z,9.40
2019-03-23T02:44:54.933Z,9.40
2019-03-23T02:45:58.771Z,9.40
2019-03-23T02:47:02.030Z,9.40
2019-03-23T02:48:05.358Z,9.40
2019-03-23T02:49:08.527Z,9.40
2019-03-23T02:50:11.965Z,9.40
2019-03-23T02:51:15.415Z,9.40
2019-03-23T02:52:18.590Z,9.40
2019-03-23T02:53:21.864Z,9.40
2019-03-23T02:54:25.150Z,9.40
2019-03-23T02:55:28.519Z,9.40
2019-03-23T02:56:31.939Z,9.40
2019-03-23T02:57:35.159Z,9.40
2019-03-23T02:58:38.374Z,9.30
2019-03-23T02:59:41.972Z,9.30
2019-03-23T03:00:45.168Z,9.30
2019-03-23T03:02:07.471Z,9.30
2019-03-23T03:03:10.937Z,9.30
2019-03-23T03:04:14.122Z,9.40
2019-03-23T03:05:17.255Z,9.40
2019-03-23T03:06:20.543Z,9.40
2019-03-23T03:07:23.702Z,9.40
2019-03-23T03:08:27.067Z,9.40
2019-03-23T03:09:30.308Z,9.40
2019-03-23T03:10:40.141Z,9.40
2019-03-23T03:11:43.480Z,9.40
2019-03-23T03:12:46.699Z,9.50
2019-03-23T03:13:50.029Z,9.50
2019-03-23T03:14:53.153Z,9.50
2019-03-23T03:15:56.326Z,9.40
2019-03-23T03:16:59.483Z,9.40
2019-03-23T03:18:03.721Z,9.40
2019-03-23T03:19:07.099Z,9.40
2019-03-23T03:20:10.487Z,9.30
2019-03-23T03:21:13.630Z,9.40
2019-03-23T03:22:16.771Z,9.40
2019-03-23T03:23:20.313Z,9.50
2019-03-23T03:24:23.623Z,9.50
2019-03-23T03:25:26.806Z,9.40
2019-03-23T03:26:30.044Z,9.50
2019-03-23T03:27:33.379Z,9.40
2019-03-23T03:28:36.497Z,9.50
2019-03-23T03:29:39.729Z,9.40
2019-03-23T03:30:44.242Z,9.40
2019-03-23T03:31:47.587Z,9.40
2019-03-23T03:32:51.147Z,9.40
2019-03-23T03:33:54.590Z,9.40
2019-03-23T03:34:58.135Z,9.50
2019-03-23T03:36:01.449Z,9.50
2019-03-23T03:37:05.134Z,9.50
2019-03-23T03:38:09.586Z,9.50
2019-03-23T03:39:12.918Z,9.50
2019-03-23T03:40:16.141Z,9.50
2019-03-23T03:41:19.489Z,9.60
2019-03-23T03:42:22.831Z,9.60
2019-03-23T03:43:26.013Z,9.60
2019-03-23T03:44:29.271Z,9.60
2019-03-23T03:45:32.459Z,9.60
2019-03-23T03:46:35.720Z,9.60
2019-03-23T03:47:41.366Z,9.60
2019-03-23T03:48:45.266Z,9.60
2019-03-23T03:49:48.753Z,9.60
2019-03-23T03:50:51.923Z,9.60
2019-03-23T03:51:55.150Z,9.60
2019-03-23T03:52:58.410Z,9.60
2019-03-23T03:54:02.612Z,9.60
2019-03-23T03:55:06.974Z,9.60
2019-03-23T03:56:10.142Z,9.60
2019-03-23T03:57:13.501Z,9.50
2019-03-23T03:58:16.755Z,9.50
2019-03-23T03:59:20.003Z,9.50
2019-03-23T04:00:23.456Z,9.50
2019-03-23T04:01:26.820Z,9.50
2019-03-23T04:02:30.081Z,9.50
2019-03-23T04:03:33.319Z,9.50
2019-03-23T04:04:36.675Z,9.40
2019-03-23T04:05:39.821Z,9.40
2019-03-23T04:06:43.527Z,9.40
2019-03-23T04:07:46.891Z,9.40
2019-03-23T04:08:50.359Z,9.30
2019-03-23T04:09:53.730Z,9.30
2019-03-23T04:10:56.871Z,9.30
2019-03-23T04:12:00.265Z,9.30
2019-03-23T04:13:03.580Z,9.30
2019-03-23T04:14:07.030Z,9.30
2019-03-23T04:15:10.619Z,9.20
2019-03-23T04:16:13.966Z,9.20
2019-03-23T04:17:17.286Z,9.20
2019-03-23T04:18:22.313Z,9.20
2019-03-23T04:19:25.779Z,9.20
2019-03-23T04:20:29.246Z,9.20
2019-03-23T04:21:32.486Z,9.20
2019-03-23T04:22:35.622Z,9.20
2019-03-23T04:23:40.584Z,9.20
2019-03-23T04:25:58.632Z,9.20
2019-03-23T04:27:04.283Z,9.20
2019-03-23T04:28:07.448Z,9.20
2019-03-23T04:29:11.006Z,9.20
2019-03-23T04:30:14.166Z,9.30
2019-03-23T04:31:18.666Z,9.30
2019-03-23T04:32:22.213Z,9.30
2019-03-23T04:33:26.874Z,9.10
2019-03-23T04:34:30.261Z,9.20
2019-03-23T04:35:33.528Z,9.10
2019-03-23T04:36:37.051Z,9.10
2019-03-23T04:37:40.431Z,9.10
2019-03-23T04:38:43.750Z,9.20
2019-03-23T04:39:47.297Z,9.20
2019-03-23T04:40:50.685Z,9.20
2019-03-23T04:41:53.940Z,9.20
2019-03-23T04:42:57.213Z,9.20
2019-03-23T04:44:00.683Z,9.20
2019-03-23T04:45:05.334Z,9.10
2019-03-23T04:46:08.640Z,9.10
2019-03-23T04:47:11.973Z,9.20
2019-03-23T04:48:15.255Z,9.10
2019-03-23T04:49:18.490Z,9.10
2019-03-23T04:50:21.839Z,9.00
2019-03-23T04:51:25.252Z,9.10
2019-03-23T04:52:28.765Z,9.10
2019-03-23T04:53:32.234Z,9.00
2019-03-23T04:54:35.717Z,9.00
2019-03-23T04:55:38.826Z,9.10
2019-03-23T04:56:42.566Z,9.00
2019-03-23T04:57:45.849Z,9.00
2019-03-23T04:58:49.269Z,9.00
2019-03-23T04:59:52.556Z,9.00
2019-03-23T05:00:55.743Z,9.00
2019-03-23T05:01:59.088Z,9.00
2019-03-23T05:03:02.435Z,9.00
2019-03-23T05:04:05.666Z,8.90
2019-03-23T05:05:08.791Z,8.90
2019-03-23T05:06:12.273Z,9.00
2019-03-23T05:07:17.425Z,9.00
2019-03-23T05:08:20.681Z,8.90
2019-03-23T05:09:24.134Z,9.00
2019-03-23T05:10:27.484Z,9.00
2019-03-23T05:11:30.757Z,9.00
2019-03-23T05:12:33.928Z,9.00
2019-03-23T05:13:37.073Z,9.00
2019-03-23T05:14:40.333Z,9.00
2019-03-23T05:15:43.722Z,9.00
2019-03-23T05:16:47.339Z,9.00
2019-03-23T05:17:50.702Z,9.00
2019-03-23T05:18:54.148Z,9.10
2019-03-23T05:19:57.274Z,9.10
2019-03-23T05:21:00.734Z,9.20
2019-03-23T05:22:03.979Z,9.20
2019-03-23T05:23:07.342Z,9.20
2019-03-23T05:24:10.611Z,9.30
2019-03-23T05:25:22.484Z,9.30
2019-03-23T05:26:25.704Z,9.30
2019-03-23T05:27:29.399Z,9.30
2019-03-23T05:28:32.840Z,9.30
2019-03-23T05:29:36.008Z,9.30
2019-03-23T05:30:39.259Z,9.30
2019-03-23T05:31:42.413Z,9.20
2019-03-23T05:32:45.756Z,9.10
2019-03-23T05:33:49.135Z,9.10
2019-03-23T05:34:52.450Z,9.10
2019-03-23T05:35:55.718Z,9.10
2019-03-23T05:36:59.007Z,9.10
2019-03-23T05:38:02.643Z,9.10
2019-03-23T05:39:06.406Z,9.10
2019-03-23T05:40:17.171Z,9.10
2019-03-23T05:41:20.442Z,9.00
2019-03-23T05:42:24.015Z,9.10
2019-03-23T05:43:27.483Z,9.10
2019-03-23T05:44:30.651Z,9.10
2019-03-23T05:45:34.469Z,9.10
2019-03-23T05:46:37.831Z,9.10
2019-03-23T05:47:41.063Z,9.10
2019-03-23T05:48:44.487Z,9.00
2019-03-23T05:49:48.043Z,9.00
2019-03-23T05:50:51.303Z,9.00
2019-03-23T05:51:54.725Z,9.00
2019-03-23T05:52:58.192Z,9.00
2019-03-23T05:54:01.718Z,9.00
2019-03-23T05:55:05.098Z,9.00
2019-03-23T05:56:08.584Z,9.00
2019-03-23T05:57:12.017Z,9.00
2019-03-23T05:58:15.291Z,9.00
2019-03-23T05:59:18.751Z,9.00
2019-03-23T06:00:22.118Z,9.10
2019-03-23T06:01:25.553Z,9.00
2019-03-23T06:02:29.029Z,9.00
2019-03-23T06:03:32.319Z,9.00
2019-03-23T06:04:35.771Z,9.00
2019-03-23T06:05:39.284Z,9.00
2019-03-23T06:06:42.822Z,9.00
2019-03-23T06:07:46.128Z,9.10
2019-03-23T06:08:55.050Z,9.10
2019-03-23T06:09:54.775Z,9.10
2019-03-23T06:10:58.154Z,9.10
2019-03-23T06:12:01.587Z,9.20
2019-03-23T06:13:04.699Z,9.20
2019-03-23T06:14:10.281Z,9.20
2019-03-23T06:15:13.772Z,9.10
2019-03-23T06:16:17.961Z,9.10
2019-03-23T06:17:21.795Z,9.10
2019-03-23T06:18:25.084Z,9.10
2019-03-23T06:19:28.530Z,9.10
2019-03-23T06:20:32.013Z,9.20
2019-03-23T06:21:36.457Z,9.20
2019-03-23T06:22:39.660Z,9.10
2019-03-23T06:23:43.350Z,9.10
2019-03-23T06:24:46.580Z,9.00
2019-03-23T06:25:50.922Z,9.00
2019-03-23T06:26:54.674Z,9.00
2019-03-23T06:27:57.905Z,8.90
2019-03-23T06:29:01.063Z,8.90
2019-03-23T06:30:05.497Z,8.90
2019-03-23T06:31:08.818Z,8.90
2019-03-23T06:32:11.994Z,9.00
2019-03-23T06:33:15.082Z,9.00
2019-03-23T06:34:18.423Z,9.00
2019-03-23T06:35:21.688Z,9.00
2019-03-23T06:36:25.071Z,9.00
2019-03-23T06:37:29.568Z,9.00
2019-03-23T06:38:32.743Z,9.10
2019-03-23T06:39:36.056Z,9.10
2019-03-23T06:40:39.416Z,9.10
2019-03-23T06:41:44.278Z,9.10
2019-03-23T06:42:47.397Z,9.10
2019-03-23T06:43:50.640Z,9.10
2019-03-23T06:44:54.066Z,9.20
2019-03-23T06:45:59.212Z,9.20
2019-03-23T06:47:02.532Z,9.20
2019-03-23T06:48:06.988Z,9.10
2019-03-23T06:49:10.495Z,9.10
2019-03-23T06:50:14.356Z,9.00
2019-03-23T06:51:17.726Z,9.00
2019-03-23T06:52:21.303Z,9.00
2019-03-23T06:53:24.732Z,9.00
2019-03-23T06:54:29.014Z,9.00
2019-03-23T06:55:32.323Z,9.00
2019-03-23T06:56:35.989Z,9.00
2019-03-23T06:57:39.268Z,9.00
2019-03-23T06:58:42.689Z,9.00
2019-03-23T06:59:46.260Z,9.00
2019-03-23T07:00:49.689Z,9.00
2019-03-23T07:01:53.040Z,9.00
2019-03-23T07:02:56.528Z,9.00
2019-03-23T07:03:59.679Z,9.00
2019-03-23T07:05:03.359Z,9.00
2019-03-23T07:06:06.704Z,8.90
2019-03-23T07:07:10.060Z,8.90
2019-03-23T07:08:13.546Z,8.90
2019-03-23T07:09:16.733Z,8.90
2019-03-23T07:10:20.275Z,8.90
2019-03-23T07:11:23.639Z,8.90
2019-03-23T07:12:27.124Z,9.00
2019-03-23T07:13:30.325Z,9.00
2019-03-23T07:14:33.593Z,9.00
2019-03-23T07:15:36.975Z,8.90
2019-03-23T07:16:40.241Z,8.90
2019-03-23T07:17:43.701Z,8.90
2019-03-23T07:18:47.229Z,8.90
2019-03-23T07:19:50.499Z,8.90
2019-03-23T07:20:53.924Z,8.90
2019-03-23T07:21:57.292Z,8.90
2019-03-23T07:23:00.559Z,8.90
2019-03-23T07:24:03.796Z,8.90
2019-03-23T07:25:08.273Z,8.90
2019-03-23T07:26:11.606Z,8.80
2019-03-23T07:27:14.968Z,8.70
2019-03-23T07:28:18.124Z,8.80
2019-03-23T07:29:21.313Z,8.80
2019-03-23T07:30:24.565Z,8.80
2019-03-23T07:31:27.744Z,8.80
2019-03-23T07:32:31.106Z,8.80
2019-03-23T07:33:34.418Z,8.80
2019-03-23T07:34:37.708Z,8.80
2019-03-23T07:35:40.945Z,8.80
2019-03-23T07:36:44.406Z,8.80
2019-03-23T07:37:47.767Z,8.80
2019-03-23T07:38:51.206Z,8.80
2019-03-23T07:39:54.399Z,8.90
2019-03-23T07:40:57.829Z,8.80
2019-03-23T07:42:00.970Z,8.90
2019-03-23T07:43:04.138Z,8.90
2019-03-23T07:44:07.607Z,8.90
2019-03-23T07:45:11.125Z,8.90
2019-03-23T07:46:14.615Z,8.90
2019-03-23T07:47:17.976Z,8.90
2019-03-23T07:48:21.403Z,8.80
2019-03-23T07:49:24.829Z,8.70
2019-03-23T07:50:28.184Z,8.80
2019-03-23T07:51:31.615Z,8.80
2019-03-23T07:52:34.990Z,8.80
2019-03-23T07:53:38.476Z,8.80
2019-03-23T07:54:41.939Z,8.80
2019-03-23T07:55:45.338Z,8.80
2019-03-23T07:56:48.745Z,8.80
2019-03-23T07:57:51.930Z,8.80
2019-03-23T07:58:55.593Z,8.80
2019-03-23T07:59:58.973Z,8.80
2019-03-23T08:01:02.350Z,8.80
2019-03-23T08:02:05.621Z,8.80
2019-03-23T08:03:09.052Z,8.80
2019-03-23T08:04:12.434Z,8.80
2019-03-23T08:05:15.954Z,8.80
2019-03-23T08:06:19.288Z,8.80
2019-03-23T08:07:23.000Z,8.80
2019-03-23T08:08:26.567Z,8.80
2019-03-23T08:09:37.293Z,8.80
2019-03-23T08:10:35.039Z,8.80
2019-03-23T08:11:38.497Z,8.90
2019-03-23T08:12:41.622Z,8.80
2019-03-23T08:13:44.907Z,8.80
2019-03-23T08:14:49.160Z,8.90
2019-03-23T08:15:52.343Z,8.80
2019-03-23T08:16:55.537Z,8.80
2019-03-23T08:17:58.899Z,8.90
2019-03-23T08:19:02.325Z,8.90
2019-03-23T08:20:06.434Z,8.90
2019-03-23T08:21:09.894Z,8.90
2019-03-23T08:22:13.317Z,8.90
2019-03-23T08:23:16.761Z,8.90
2019-03-23T08:24:20.185Z,8.90
2019-03-23T08:25:23.731Z,8.90
2019-03-23T08:26:27.264Z,8.90
2019-03-23T08:27:30.630Z,8.90
2019-03-23T08:28:34.186Z,8.90
2019-03-23T08:29:37.512Z,8.90
2019-03-23T08:30:40.746Z,8.90
2019-03-23T08:31:44.433Z,8.90
2019-03-23T08:32:47.718Z,8.90
2019-03-23T08:33:52.120Z,8.90
2019-03-23T08:34:58.002Z,9.00
2019-03-23T08:36:00.731Z,9.00
2019-03-23T08:37:03.966Z,9.00
2019-03-23T08:38:07.199Z,9.00
2019-03-23T08:39:13.463Z,9.00
2019-03-23T08:40:16.819Z,9.00
2019-03-23T08:41:20.085Z,9.00
2019-03-23T08:42:23.354Z,9.00
2019-03-23T08:43:26.725Z,9.00
2019-03-23T08:44:31.662Z,9.00
2019-03-23T08:45:35.074Z,9.00
2019-03-23T08:46:38.477Z,9.00
2019-03-23T08:47:41.817Z,9.00
2019-03-23T08:48:44.996Z,9.00
2019-03-23T08:49:48.164Z,8.90
2019-03-23T08:50:51.536Z,8.90
2019-03-23T08:51:55.010Z,8.90
2019-03-23T08:52:58.235Z,8.90
2019-03-23T08:54:01.583Z,9.00
2019-03-23T08:55:06.147Z,9.00
2019-03-23T08:56:09.450Z,9.00
2019-03-23T08:57:12.718Z,9.00
2019-03-23T08:58:15.995Z,8.90
2019-03-23T08:59:19.276Z,8.90
2019-03-23T09:00:22.544Z,9.00
2019-03-23T09:01:27.091Z,8.90
2019-03-23T09:02:30.298Z,8.90
2019-03-23T09:03:33.811Z,8.90
2019-03-23T09:04:37.075Z,8.90
2019-03-23T09:05:40.594Z,8.90
2019-03-23T09:06:43.860Z,9.00
2019-03-23T09:07:47.300Z,8.90
2019-03-23T09:08:50.785Z,9.00
2019-03-23T09:09:59.123Z,9.00
2019-03-23T09:10:59.361Z,8.90
2019-03-23T09:12:02.510Z,8.90
2019-03-23T09:13:05.668Z,9.00
2019-03-23T09:14:08.932Z,9.00
2019-03-23T09:15:12.393Z,9.00
2019-03-23T09:16:15.639Z,9.00
2019-03-23T09:17:18.970Z,9.00
2019-03-23T09:18:22.675Z,9.10
2019-03-23T09:19:25.945Z,9.00
2019-03-23T09:20:29.709Z,9.00
2019-03-23T09:21:33.874Z,9.00
2019-03-23T09:22:37.373Z,9.00
2019-03-23T09:23:40.742Z,9.10
2019-03-23T09:24:44.102Z,9.00
2019-03-23T09:25:47.254Z,9.00
2019-03-23T09:26:50.729Z,9.00
2019-03-23T09:27:54.261Z,9.00
2019-03-23T09:28:57.677Z,9.00
2019-03-23T09:30:01.031Z,8.90
2019-03-23T09:31:04.497Z,8.90
2019-03-23T09:32:07.699Z,8.90
2019-03-23T09:33:11.336Z,9.00
2019-03-23T09:34:14.505Z,9.00
2019-03-23T09:35:17.970Z,9.00
2019-03-23T09:36:22.836Z,9.00
2019-03-23T09:37:26.369Z,9.10
2019-03-23T09:38:29.818Z,9.10
2019-03-23T09:39:33.053Z,9.00
2019-03-23T09:40:36.203Z,9.00
2019-03-23T09:41:39.474Z,9.00
2019-03-23T09:42:43.339Z,8.90
2019-03-23T09:43:46.778Z,8.90
2019-03-23T09:44:51.351Z,9.00
2019-03-23T09:45:54.564Z,9.00
2019-03-23T09:46:57.839Z,9.00
2019-03-23T09:48:01.328Z,9.00
2019-03-23T09:49:04.681Z,9.00
2019-03-23T09:50:08.055Z,9.00
2019-03-23T09:51:11.440Z,9.10
2019-03-23T09:52:14.765Z,9.10
2019-03-23T09:53:17.947Z,9.10
2019-03-23T09:54:21.523Z,9.20
2019-03-23T09:55:24.642Z,9.10
2019-03-23T09:56:28.027Z,9.20
2019-03-23T09:57:31.240Z,9.30
2019-03-23T09:58:34.403Z,9.30
2019-03-23T09:59:37.763Z,9.20
2019-03-23T10:00:41.089Z,9.20
2019-03-23T10:01:44.214Z,9.20
2019-03-23T10:02:47.498Z,9.20
2019-03-23T10:03:50.849Z,9.10
2019-03-23T10:04:54.110Z,9.20
2019-03-23T10:05:57.379Z,9.20
2019-03-23T10:07:00.976Z,9.20
2019-03-23T10:08:04.148Z,9.30
2019-03-23T10:09:07.530Z,9.30
2019-03-23T10:10:21.034Z,9.30
2019-03-23T10:11:16.188Z,9.30
2019-03-23T10:12:19.339Z,9.30
2019-03-23T10:13:22.552Z,9.30
2019-03-23T10:14:25.908Z,9.30
2019-03-23T10:15:30.971Z,9.20
2019-03-23T10:16:34.442Z,9.20
2019-03-23T10:17:37.615Z,9.30
2019-03-23T10:18:40.898Z,9.30
2019-03-23T10:19:44.190Z,9.30
2019-03-23T10:20:47.438Z,9.30
2019-03-23T10:21:50.696Z,9.30
2019-03-23T10:22:54.237Z,9.30
2019-03-23T10:23:57.487Z,9.30
2019-03-23T10:25:01.720Z,9.30
2019-03-23T10:26:05.504Z,9.40
2019-03-23T10:27:08.763Z,9.30
2019-03-23T10:28:13.055Z,9.30
2019-03-23T10:29:16.595Z,9.30
2019-03-23T10:30:19.985Z,9.30
2019-03-23T10:31:23.536Z,9.40
2019-03-23T10:32:28.347Z,9.40
2019-03-23T10:33:31.557Z,9.40
2019-03-23T10:34:34.799Z,9.40
2019-03-23T10:35:38.420Z,9.40
2019-03-23T10:36:41.702Z,9.40
2019-03-23T10:37:44.907Z,9.40
2019-03-23T10:38:48.435Z,9.40
2019-03-23T10:39:51.700Z,9.40
2019-03-23T10:40:55.241Z,9.40
2019-03-23T10:41:58.829Z,9.40
2019-03-23T10:43:02.056Z,9.40
2019-03-23T10:44:05.384Z,9.30
2019-03-23T10:45:09.145Z,9.40
2019-03-23T10:46:13.415Z,9.30
2019-03-23T10:47:16.920Z,9.40
2019-03-23T10:48:20.137Z,9.50
2019-03-23T10:49:23.539Z,9.50
2019-03-23T10:50:26.882Z,9.40
2019-03-23T10:51:30.064Z,9.40
2019-03-23T10:52:33.223Z,9.40
2019-03-23T10:53:36.781Z,9.50
2019-03-23T10:54:40.235Z,9.50
2019-03-23T10:55:43.433Z,9.50
2019-03-23T10:56:46.594Z,9.40
2019-03-23T10:57:49.949Z,9.50
2019-03-23T10:58:53.262Z,9.40
2019-03-23T10:59:57.746Z,9.50
2019-03-23T11:01:01.237Z,9.40
2019-03-23T11:02:04.508Z,9.40
2019-03-23T11:03:07.801Z,9.40
2019-03-23T11:04:11.048Z,9.40
2019-03-23T11:05:14.594Z,9.40
2019-03-23T11:06:17.763Z,9.40
2019-03-23T11:07:21.145Z,9.50
2019-03-23T11:08:25.495Z,9.50
2019-03-23T11:09:28.795Z,9.50
2019-03-23T11:10:41.451Z,9.60
2019-03-23T11:11:37.147Z,9.60
2019-03-23T11:12:40.408Z,9.50
2019-03-23T11:13:43.710Z,9.60
2019-03-23T11:14:47.157Z,9.50
2019-03-23T11:15:50.659Z,9.50
2019-03-23T11:16:53.914Z,9.50
2019-03-23T11:17:58.895Z,9.60
2019-03-23T11:19:02.108Z,9.60
2019-03-23T11:20:05.882Z,9.60
2019-03-23T11:21:09.067Z,9.60
2019-03-23T11:22:12.430Z,9.60
2019-03-23T11:23:15.608Z,9.60
2019-03-23T11:24:18.991Z,9.60
2019-03-23T11:25:22.270Z,9.60
2019-03-23T11:26:25.653Z,9.70
2019-03-23T11:27:29.514Z,9.70
2019-03-23T11:28:33.045Z,9.70
2019-03-23T11:29:40.338Z,9.70
2019-03-23T11:32:34.082Z,9.80
2019-03-23T11:33:37.481Z,9.90
2019-03-23T11:34:40.754Z,9.90
2019-03-23T11:35:44.067Z,9.90
2019-03-23T11:36:47.295Z,10.00
2019-03-23T11:37:52.205Z,10.00
2019-03-23T11:38:56.691Z,10.10
2019-03-23T11:40:01.063Z,10.00
2019-03-23T11:41:04.487Z,10.00
2019-03-23T11:42:07.668Z,10.00
2019-03-23T11:43:10.928Z,10.00
2019-03-23T11:44:15.289Z,10.10
2019-03-23T11:45:18.482Z,10.10
2019-03-23T11:46:22.959Z,10.10
2019-03-23T11:47:26.077Z,10.10
2019-03-23T11:48:29.619Z,10.20
2019-03-23T11:49:32.958Z,10.20
2019-03-23T11:50:36.515Z,10.20
2019-03-23T11:51:40.882Z,10.20
2019-03-23T11:52:44.226Z,10.30
2019-03-23T11:53:47.581Z,10.30
2019-03-23T11:54:51.122Z,10.40
2019-03-23T11:55:54.457Z,10.40
2019-03-23T11:56:57.721Z,10.40
2019-03-23T11:58:00.971Z,10.50
2019-03-23T11:59:04.115Z,10.40
2019-03-23T12:00:08.406Z,10.40
2019-03-23T12:01:11.653Z,10.50
2019-03-23T12:02:36.148Z,10.50
2019-03-23T12:03:41.884Z,10.50
2019-03-23T12:04:45.360Z,10.50
2019-03-23T12:05:48.835Z,10.60
2019-03-23T12:06:52.035Z,10.60
2019-03-23T12:07:55.268Z,10.50
2019-03-23T12:09:10.970Z,10.50
2019-03-23T12:10:14.595Z,10.50
2019-03-23T12:11:18.092Z,10.50
2019-03-23T12:12:21.318Z,10.50
2019-03-23T12:13:24.751Z,10.40
2019-03-23T12:14:28.160Z,10.50
2019-03-23T12:15:31.616Z,10.50
2019-03-23T12:16:35.195Z,10.50
2019-03-23T12:17:38.460Z,10.50
2019-03-23T12:18:41.745Z,10.60
2019-03-23T12:19:45.391Z,10.70
2019-03-23T12:20:48.829Z,10.70
2019-03-23T12:21:51.987Z,10.80
2019-03-23T12:22:55.146Z,10.80
2019-03-23T12:23:58.751Z,10.80
2019-03-23T12:25:01.982Z,10.90
2019-03-23T12:26:05.328Z,10.80
2019-03-23T12:27:08.697Z,10.80
2019-03-23T12:28:12.939Z,10.80
2019-03-23T12:29:16.402Z,10.70
2019-03-23T12:30:19.942Z,10.80
2019-03-23T12:31:25.642Z,10.90
2019-03-23T12:32:29.101Z,10.90
2019-03-23T12:33:32.965Z,11.00
2019-03-23T12:34:36.316Z,11.00
2019-03-23T12:35:41.091Z,11.00
2019-03-23T12:36:46.173Z,10.90
2019-03-23T12:37:49.299Z,10.80
2019-03-23T12:38:52.689Z,10.80
2019-03-23T12:39:56.031Z,10.90
2019-03-23T12:41:09.992Z,11.00
2019-03-23T12:42:04.726Z,11.10
2019-03-23T12:43:07.917Z,11.10
2019-03-23T12:44:11.273Z,11.10
2019-03-23T12:45:14.702Z,11.00
2019-03-23T12:46:17.795Z,11.10
2019-03-23T12:47:21.700Z,11.10
2019-03-23T12:48:25.162Z,11.20
2019-03-23T12:49:28.533Z,11.20
2019-03-23T12:50:31.851Z,11.30
2019-03-23T12:51:35.279Z,11.40
2019-03-23T12:52:38.868Z,11.40
2019-03-23T12:53:42.240Z,11.50
2019-03-23T12:54:47.385Z,11.40
2019-03-23T12:55:50.905Z,11.50
2019-03-23T12:56:54.108Z,11.50
2019-03-23T12:57:57.591Z,11.60
2019-03-23T12:59:00.925Z,11.60
2019-03-23T13:00:05.638Z,11.70
2019-03-23T13:01:08.817Z,11.70
2019-03-23T13:02:13.368Z,11.70
2019-03-23T13:03:16.718Z,11.70
2019-03-23T13:04:19.968Z,11.70
2019-03-23T13:05:24.313Z,11.70
2019-03-23T13:06:27.763Z,11.70
2019-03-23T13:07:31.217Z,11.70
2019-03-23T13:08:34.828Z,11.60
2019-03-23T13:09:38.196Z,11.60
2019-03-23T13:10:41.427Z,11.60
2019-03-23T13:11:45.128Z,11.50
2019-03-23T13:12:49.558Z,11.60
2019-03-23T13:13:52.806Z,11.60
2019-03-23T13:14:56.259Z,11.60
2019-03-23T13:16:00.073Z,11.60
2019-03-23T13:17:03.403Z,11.60
2019-03-23T13:18:06.871Z,11.70
2019-03-23T13:19:10.323Z,11.70
2019-03-23T13:20:13.891Z,11.70
2019-03-23T13:21:17.238Z,11.70
2019-03-23T13:22:20.643Z,11.70
2019-03-23T13:23:24.123Z,11.70
2019-03-23T13:24:27.277Z,11.80
2019-03-23T13:25:30.713Z,11.80
2019-03-23T13:26:34.137Z,11.90
2019-03-23T13:27:37.602Z,11.90
2019-03-23T13:28:40.924Z,11.80
2019-03-23T13:29:44.185Z,11.90
2019-03-23T13:30:47.830Z,11.90
2019-03-23T13:31:50.967Z,12.00
2019-03-23T13:32:54.226Z,12.00
2019-03-23T13:33:57.465Z,12.00
2019-03-23T13:35:01.195Z,12.00
2019-03-23T13:36:04.974Z,12.00
2019-03-23T13:37:08.134Z,12.10
2019-03-23T13:38:11.314Z,12.10
2019-03-23T13:39:14.715Z,12.10
2019-03-23T13:40:18.216Z,12.10
2019-03-23T13:41:21.684Z,12.10
2019-03-23T13:42:24.912Z,12.20
2019-03-23T13:43:28.236Z,12.20
2019-03-23T13:44:31.725Z,12.30
2019-03-23T13:45:42.426Z,12.30
2019-03-23T13:46:40.347Z,12.30
2019-03-23T13:47:43.614Z,12.30
2019-03-23T13:48:46.810Z,12.40
2019-03-23T13:49:49.961Z,12.40
2019-03-23T13:50:53.248Z,12.40
2019-03-23T13:51:56.726Z,12.40
2019-03-23T13:53:00.130Z,12.40
2019-03-23T13:54:03.518Z,12.50
2019-03-23T13:55:08.888Z,12.50
2019-03-23T13:56:12.151Z,12.50
2019-03-23T13:57:15.379Z,12.50
2019-03-23T13:58:18.971Z,12.50
2019-03-23T13:59:22.238Z,12.50
2019-03-23T14:00:27.356Z,12.50
2019-03-23T14:01:30.465Z,12.50
2019-03-23T14:02:33.697Z,12.50